Time;durP1;ratioP1;P1;durP2;ratioP2;P2;SDS_P1;SDS_P2;PMS_P1;PMS_P2;Temp;Humidity;BMP_temperature;BMP_pressure;BME280_temperature;BME280_humidity;BME280_pressure;Samples;Min_cycle;Max_cycle;Signal;HPM_P1;HPM_P2
2024/01/14 00:02:15;;;;;;;0.88;0.88;;;7.60;69.40;;;;;;5092736;28;20028;-72
2024/01/14 00:04:41;;;;;;;0.73;0.73;;;7.50;69.40;;;;;;5091979;28;20039;-72
2024/01/14 00:07:07;;;;;;;0.60;0.60;;;7.50;69.50;;;;;;5091807;28;20444;-72
2024/01/14 00:09:32;;;;;;;0.60;0.60;;;7.50;69.50;;;;;;5092099;28;20020;-71
2024/01/14 00:11:58;;;;;;;0.60;0.60;;;7.50;69.60;;;;;;5092239;28;20036;-72
2024/01/14 00:14:23;;;;;;;0.47;0.47;;;7.40;69.60;;;;;;5092051;28;20493;-71
2024/01/14 00:16:49;;;;;;;1.63;1.52;;;7.50;69.60;;;;;;5092026;28;20070;-71
2024/01/14 00:19:15;;;;;;;0.70;0.70;;;7.50;69.60;;;;;;5091719;28;20024;-71
2024/01/14 00:21:40;;;;;;;0.85;0.85;;;7.50;69.70;;;;;;5092099;28;20038;-71
2024/01/14 00:24:06;;;;;;;1.15;1.15;;;7.50;69.80;;;;;;5091931;28;20454;-71
2024/01/14 00:26:32;;;;;;;0.50;0.50;;;7.50;69.80;;;;;;5090245;28;20054;-72
2024/01/14 00:28:58;;;;;;;0.60;0.60;;;7.50;69.80;;;;;;5076417;28;20031;-71
2024/01/14 00:31:24;;;;;;;0.70;0.70;;;7.50;69.80;;;;;;5092138;28;20028;-71
2024/01/14 00:33:50;;;;;;;1.42;1.15;;;7.50;69.80;;;;;;5073405;28;20028;-71
2024/01/14 00:36:16;;;;;;;0.65;0.65;;;7.50;69.80;;;;;;5073502;28;20028;-71
2024/01/14 00:38:42;;;;;;;0.60;0.60;;;7.50;69.90;;;;;;5091292;28;20024;-71
2024/01/14 00:41:08;;;;;;;0.70;0.70;;;7.50;69.90;;;;;;5091596;28;20035;-71
2024/01/14 00:43:33;;;;;;;0.88;0.88;;;7.50;70.00;;;;;;5091528;28;20063;-72
2024/01/14 00:46:00;;;;;;;0.60;0.60;;;7.50;70.00;;;;;;5091645;28;20463;-71
2024/01/14 00:48:25;;;;;;;1.08;1.08;;;7.60;69.90;;;;;;5091533;28;20031;-74
2024/01/14 00:50:51;;;;;;;0.85;0.85;;;7.60;69.90;;;;;;5091554;28;20039;-74
2024/01/14 00:53:16;;;;;;;0.85;0.85;;;7.60;69.90;;;;;;5091246;28;20028;-74
2024/01/14 00:55:42;;;;;;;0.77;0.77;;;7.60;70.00;;;;;;5073082;28;20063;-74
2024/01/14 00:58:07;;;;;;;0.95;0.95;;;7.60;70.00;;;;;;5077187;28;20051;-74
2024/01/14 01:00:32;;;;;;;1.33;1.23;;;7.60;70.00;;;;;;5073157;28;20032;-75
2024/01/14 01:02:58;;;;;;;0.68;0.68;;;7.60;69.90;;;;;;5084691;28;20024;-74
2024/01/14 01:05:24;;;;;;;0.47;0.47;;;7.60;69.90;;;;;;5069284;28;20025;-75
2024/01/14 01:07:50;;;;;;;0.60;0.60;;;7.60;69.90;;;;;;5069762;28;20029;-75
2024/01/14 01:10:15;;;;;;;0.70;0.70;;;7.60;69.90;;;;;;5070835;28;20430;-75
2024/01/14 01:12:41;;;;;;;0.70;0.70;;;7.60;69.90;;;;;;5070236;28;20111;-75
2024/01/14 01:15:08;;;;;;;0.63;0.63;;;7.60;69.80;;;;;;5070988;28;20028;-75
2024/01/14 01:17:34;;;;;;;0.60;0.60;;;7.60;69.80;;;;;;5073740;28;20024;-75
2024/01/14 01:20:00;;;;;;;0.57;0.57;;;7.60;69.70;;;;;;5082433;28;20036;-75
2024/01/14 01:22:26;;;;;;;0.65;0.65;;;7.60;69.70;;;;;;5071270;28;20036;-75
2024/01/14 01:24:51;;;;;;;1.00;1.00;;;7.50;69.60;;;;;;5084067;28;20031;-75
2024/01/14 01:27:17;;;;;;;0.70;0.70;;;7.60;69.60;;;;;;5089905;28;20520;-75
2024/01/14 01:29:43;;;;;;;0.75;0.75;;;7.60;69.70;;;;;;5084138;28;20081;-74
2024/01/14 01:32:09;;;;;;;0.68;0.68;;;7.60;69.70;;;;;;5071486;28;20036;-74
2024/01/14 01:34:35;;;;;;;0.68;0.68;;;7.60;69.60;;;;;;5081378;28;20047;-74
2024/01/14 01:37:02;;;;;;;0.55;0.55;;;7.60;69.50;;;;;;5091153;28;20040;-75
2024/01/14 01:39:27;;;;;;;0.75;0.75;;;7.60;69.50;;;;;;5091868;28;20059;-75
2024/01/14 01:41:53;;;;;;;1.15;1.15;;;7.60;69.50;;;;;;5094909;28;20094;-74
2024/01/14 01:44:19;;;;;;;0.80;0.80;;;7.50;69.40;;;;;;5080405;28;20750;-74
2024/01/14 01:46:45;;;;;;;0.60;0.60;;;7.50;69.50;;;;;;5095089;28;20048;-75
2024/01/14 01:49:11;;;;;;;0.65;0.65;;;7.50;69.50;;;;;;5093006;28;20107;-74
2024/01/14 01:51:38;;;;;;;0.73;0.73;;;7.50;69.50;;;;;;5086023;28;20028;-74
2024/01/14 01:54:04;;;;;;;2.90;1.35;;;7.50;69.50;;;;;;5087518;28;20024;-75
2024/01/14 01:56:32;;;;;;;0.98;0.98;;;7.50;69.50;;;;;;5111449;28;20061;-75
2024/01/14 01:58:58;;;;;;;0.70;0.70;;;7.50;69.50;;;;;;5074055;28;20486;-71
2024/01/14 02:01:24;;;;;;;1.13;0.85;;;7.50;69.50;;;;;;5074205;28;20063;-71
2024/01/14 02:03:53;;;;;;;1.10;1.10;;;7.50;69.60;;;;;;5073955;28;20033;-72
2024/01/14 02:06:20;;;;;;;0.85;0.85;;;7.50;69.60;;;;;;5074036;28;20054;-71
2024/01/14 02:08:47;;;;;;;0.60;0.60;;;7.50;69.70;;;;;;5056301;28;20039;-71
2024/01/14 02:11:13;;;;;;;1.05;1.02;;;7.50;69.60;;;;;;5094157;28;20032;-72
2024/01/14 02:13:38;;;;;;;0.77;0.77;;;7.50;69.70;;;;;;5094039;28;20039;-73
2024/01/14 02:16:04;;;;;;;0.60;0.60;;;7.50;69.80;;;;;;5093950;28;20375;-71
2024/01/14 02:18:30;;;;;;;0.70;0.70;;;7.60;69.70;;;;;;5094023;28;20028;-71
2024/01/14 02:20:56;;;;;;;1.25;1.23;;;7.50;69.60;;;;;;5093815;28;20028;-72
2024/01/14 02:23:23;;;;;;;0.93;0.93;;;7.50;69.70;;;;;;5093775;28;20020;-72
2024/01/14 02:25:48;;;;;;;0.88;0.88;;;7.50;69.80;;;;;;5094043;28;20020;-71
2024/01/14 02:28:14;;;;;;;0.80;0.80;;;7.50;69.80;;;;;;5093660;28;20035;-71
2024/01/14 02:30:40;;;;;;;0.65;0.65;;;7.50;69.80;;;;;;5093827;28;20032;-71
2024/01/14 02:33:06;;;;;;;2.60;0.88;;;7.50;69.80;;;;;;5093806;28;20592;-72
2024/01/14 02:35:32;;;;;;;0.50;0.50;;;7.50;69.90;;;;;;5075538;28;20102;-71
2024/01/14 02:37:58;;;;;;;0.50;0.50;;;7.50;69.80;;;;;;5093574;28;20031;-71
2024/01/14 02:40:23;;;;;;;0.52;0.52;;;7.50;69.80;;;;;;5093617;28;20069;-71
2024/01/14 02:42:49;;;;;;;0.70;0.70;;;7.50;69.80;;;;;;5093482;28;20024;-71
2024/01/14 02:45:14;;;;;;;0.55;0.55;;;7.50;69.90;;;;;;5093240;28;20047;-71
2024/01/14 02:47:40;;;;;;;1.17;1.13;;;7.50;69.80;;;;;;5073339;28;20075;-71
2024/01/14 02:50:06;;;;;;;0.70;0.70;;;7.50;69.90;;;;;;5072034;28;20506;-71
2024/01/14 02:52:32;;;;;;;1.13;1.08;;;7.50;69.80;;;;;;5073220;28;20103;-71
2024/01/14 02:54:57;;;;;;;1.67;1.58;;;7.50;69.80;;;;;;5073048;28;20116;-71
2024/01/14 02:57:23;;;;;;;1.15;1.05;;;7.50;69.80;;;;;;5055135;28;20082;-71
2024/01/14 02:59:49;;;;;;;0.75;0.75;;;7.50;69.80;;;;;;5054965;28;20047;-71
2024/01/14 03:02:14;;;;;;;0.50;0.50;;;7.50;69.80;;;;;;5055055;28;20032;-71
2024/01/14 03:04:40;;;;;;;0.80;0.80;;;7.50;69.80;;;;;;5054804;28;20099;-71
2024/01/14 03:07:05;;;;;;;0.55;0.55;;;7.60;69.80;;;;;;5073012;28;20384;-71
2024/01/14 03:09:31;;;;;;;0.80;0.80;;;7.50;69.90;;;;;;5072677;28;20028;-72
2024/01/14 03:11:56;;;;;;;0.70;0.70;;;7.60;69.80;;;;;;5055063;28;20032;-72
2024/01/14 03:14:22;;;;;;;3.70;2.15;;;7.50;69.80;;;;;;5072536;28;20035;-72
2024/01/14 03:16:47;;;;;;;0.60;0.60;;;7.50;69.80;;;;;;5072750;28;20466;-71
2024/01/14 03:19:13;;;;;;;0.50;0.50;;;7.50;69.80;;;;;;5054364;28;20611;-71
2024/01/14 03:21:38;;;;;;;0.60;0.60;;;7.50;69.80;;;;;;5072719;28;20044;-71
2024/01/14 03:24:04;;;;;;;0.82;0.82;;;7.60;69.80;;;;;;5054590;28;20025;-71
2024/01/14 03:26:29;;;;;;;0.50;0.50;;;7.50;69.80;;;;;;5072716;28;20083;-71
2024/01/14 03:28:55;;;;;;;0.95;0.95;;;7.50;69.80;;;;;;5072381;28;20025;-71
2024/01/14 03:31:21;;;;;;;2.15;1.95;;;7.50;69.90;;;;;;5072625;28;20068;-71
2024/01/14 03:33:46;;;;;;;0.70;0.70;;;7.50;69.80;;;;;;5072318;28;20434;-71
2024/01/14 03:36:15;;;;;;;0.98;0.98;;;7.50;69.80;;;;;;5072194;28;20040;-71
2024/01/14 03:38:41;;;;;;;0.65;0.65;;;7.50;69.90;;;;;;5072040;28;20059;-71
2024/01/14 03:41:06;;;;;;;0.70;0.70;;;7.60;69.90;;;;;;5072651;28;20060;-71
2024/01/14 03:43:32;;;;;;;0.90;0.90;;;7.60;69.80;;;;;;5072254;28;20028;-70
2024/01/14 03:45:58;;;;;;;0.73;0.73;;;7.50;69.90;;;;;;5078064;28;20036;-70
2024/01/14 03:48:23;;;;;;;0.90;0.90;;;7.50;69.80;;;;;;5092369;28;20031;-70
2024/01/14 03:50:48;;;;;;;0.68;0.68;;;7.50;69.90;;;;;;5092082;28;20036;-70
2024/01/14 03:53:14;;;;;;;0.60;0.60;;;7.50;69.80;;;;;;5092298;28;20031;-71
2024/01/14 03:55:40;;;;;;;0.50;0.50;;;7.50;69.70;;;;;;5092291;28;20126;-71
2024/01/14 03:58:06;;;;;;;1.45;1.35;;;7.50;69.70;;;;;;5092315;28;20256;-71
2024/01/14 04:00:31;;;;;;;0.55;0.55;;;7.50;69.70;;;;;;5092361;28;20047;-71
2024/01/14 04:02:57;;;;;;;2.20;1.15;;;7.50;69.70;;;;;;5073666;28;20024;-71
2024/01/14 04:05:23;;;;;;;1.17;1.17;;;7.50;69.60;;;;;;5073803;28;20106;-71
2024/01/14 04:07:49;;;;;;;0.85;0.85;;;7.50;69.70;;;;;;5091948;28;20107;-71
2024/01/14 04:10:16;;;;;;;0.60;0.60;;;7.50;69.70;;;;;;5091689;28;20072;-71
2024/01/14 04:12:42;;;;;;;0.70;0.70;;;7.50;69.70;;;;;;5073851;28;20036;-71
2024/01/14 04:15:08;;;;;;;1.20;1.17;;;7.50;69.70;;;;;;5091644;28;20027;-71
2024/01/14 04:17:33;;;;;;;0.70;0.70;;;7.50;69.80;;;;;;5091953;28;20479;-74
2024/01/14 04:20:03;;;;;;;1.70;1.60;;;7.50;69.70;;;;;;5091523;28;20016;-74
2024/01/14 04:22:29;;;;;;;0.70;0.70;;;7.50;69.80;;;;;;5092019;28;20046;-74
2024/01/14 04:24:55;;;;;;;0.98;0.98;;;7.50;69.80;;;;;;5091527;28;20444;-73
2024/01/14 04:27:20;;;;;;;0.88;0.88;;;7.50;69.80;;;;;;5092004;28;20029;-73
2024/01/14 04:29:46;;;;;;;0.95;0.95;;;7.60;69.70;;;;;;5091558;28;20471;-73
2024/01/14 04:32:12;;;;;;;0.80;0.80;;;7.50;69.80;;;;;;5092121;28;20038;-73
2024/01/14 04:34:37;;;;;;;0.93;0.93;;;7.60;69.80;;;;;;5091298;28;20167;-74
2024/01/14 04:37:03;;;;;;;0.60;0.60;;;7.50;69.80;;;;;;5091733;28;20050;-74
2024/01/14 04:39:29;;;;;;;0.60;0.60;;;7.60;69.80;;;;;;5091262;28;20491;-74
2024/01/14 04:41:54;;;;;;;1.27;1.20;;;7.60;69.90;;;;;;5091687;28;20047;-74
2024/01/14 04:44:20;;;;;;;1.48;1.38;;;7.60;69.80;;;;;;5091249;28;20028;-73
2024/01/14 04:46:46;;;;;;;0.70;0.70;;;7.60;69.90;;;;;;5079193;28;20036;-74
2024/01/14 04:49:11;;;;;;;1.67;1.58;;;7.60;69.80;;;;;;5071113;28;20467;-74
2024/01/14 04:51:37;;;;;;;1.30;1.02;;;7.60;69.80;;;;;;5071282;28;20064;-74
2024/01/14 04:54:03;;;;;;;0.70;0.70;;;7.60;69.80;;;;;;5071037;28;20033;-74
2024/01/14 04:56:29;;;;;;;0.85;0.85;;;7.60;69.70;;;;;;5071099;28;20433;-74
2024/01/14 04:58:55;;;;;;;0.60;0.60;;;7.60;69.60;;;;;;5070850;28;20040;-74
2024/01/14 05:01:20;;;;;;;0.85;0.85;;;7.60;69.70;;;;;;5071171;28;20460;-74
2024/01/14 05:03:46;;;;;;;0.80;0.80;;;7.60;69.70;;;;;;5071032;28;20036;-74
2024/01/14 05:06:12;;;;;;;0.60;0.60;;;7.60;69.80;;;;;;5071099;28;20434;-74
2024/01/14 05:08:40;;;;;;;1.60;1.50;;;7.60;69.80;;;;;;5070776;28;20476;-74
2024/01/14 05:11:06;;;;;;;0.85;0.80;;;7.60;69.80;;;;;;5070983;28;20599;-74
2024/01/14 05:13:32;;;;;;;0.82;0.82;;;7.60;69.90;;;;;;5071621;28;20028;-73
2024/01/14 05:15:57;;;;;;;1.58;1.48;;;7.60;69.90;;;;;;5074764;28;20040;-74
2024/01/14 05:18:22;;;;;;;1.00;1.00;;;7.60;69.90;;;;;;5074580;28;20032;-73
2024/01/14 05:20:48;;;;;;;0.90;0.90;;;7.60;69.90;;;;;;5074917;28;20464;-74
2024/01/14 05:23:13;;;;;;;1.00;1.00;;;7.60;69.90;;;;;;5057099;28;20085;-74
2024/01/14 05:25:39;;;;;;;1.67;1.60;;;7.60;69.90;;;;;;5074497;28;20456;-73
2024/01/14 05:28:05;;;;;;;0.60;0.60;;;7.60;69.90;;;;;;5074669;28;20038;-74
2024/01/14 05:30:30;;;;;;;0.60;0.60;;;7.60;69.90;;;;;;5074443;28;20028;-74
2024/01/14 05:32:56;;;;;;;1.05;1.05;;;7.70;69.90;;;;;;5074418;28;20021;-73
2024/01/14 05:35:21;;;;;;;0.80;0.80;;;7.70;69.90;;;;;;5074540;28;20182;-74
2024/01/14 05:37:46;;;;;;;0.60;0.60;;;7.70;69.90;;;;;;5074165;28;20348;-73
2024/01/14 05:40:12;;;;;;;0.68;0.68;;;7.70;70.00;;;;;;5074171;28;20381;-74
2024/01/14 05:42:40;;;;;;;2.00;1.85;;;7.70;69.90;;;;;;5074208;28;20365;-73
2024/01/14 05:45:07;;;;;;;0.68;0.68;;;7.70;69.90;;;;;;5074058;28;20032;-74
2024/01/14 05:47:32;;;;;;;1.02;1.02;;;7.70;69.90;;;;;;5093648;28;20039;-74
2024/01/14 05:49:58;;;;;;;1.17;1.17;;;7.70;69.90;;;;;;5076185;28;20020;-73
2024/01/14 05:52:23;;;;;;;0.70;0.70;;;7.70;69.90;;;;;;5095079;28;20111;-73
2024/01/14 05:54:49;;;;;;;0.60;0.60;;;7.70;69.90;;;;;;5094228;28;20054;-74
2024/01/14 05:57:14;;;;;;;1.05;1.02;;;7.70;69.80;;;;;;5094560;28;20114;-74
2024/01/14 05:59:40;;;;;;;0.50;0.50;;;7.70;69.90;;;;;;5094202;28;20031;-74
2024/01/14 06:02:06;;;;;;;0.60;0.60;;;7.80;69.80;;;;;;5094194;28;20099;-74
2024/01/14 06:04:32;;;;;;;0.65;0.65;;;7.80;69.80;;;;;;5094135;28;20032;-74
2024/01/14 06:07:00;;;;;;;1.10;1.05;;;7.80;69.80;;;;;;5094650;28;20063;-74
2024/01/14 06:09:25;;;;;;;0.70;0.70;;;7.80;69.60;;;;;;5076117;28;20031;-74
2024/01/14 06:11:51;;;;;;;1.15;1.08;;;7.80;69.60;;;;;;5094306;28;20382;-74
2024/01/14 06:14:16;;;;;;;1.38;1.27;;;7.70;69.70;;;;;;5094055;28;20103;-74
2024/01/14 06:16:42;;;;;;;0.60;0.60;;;7.70;69.60;;;;;;5094201;28;20036;-73
2024/01/14 06:19:07;;;;;;;0.60;0.60;;;7.70;69.70;;;;;;5093913;28;20051;-74
2024/01/14 06:21:33;;;;;;;0.60;0.60;;;7.70;69.60;;;;;;5094062;28;20058;-74
2024/01/14 06:23:59;;;;;;;1.15;1.15;;;7.70;69.60;;;;;;5093974;28;20055;-74
2024/01/14 06:26:24;;;;;;;0.70;0.70;;;7.70;69.60;;;;;;5094057;28;20468;-74
2024/01/14 06:28:50;;;;;;;0.60;0.60;;;7.70;69.60;;;;;;5093587;28;20016;-73
2024/01/14 06:31:16;;;;;;;3.30;1.05;;;7.60;69.60;;;;;;5093940;28;20032;-74
2024/01/14 06:33:42;;;;;;;3.80;0.95;;;7.60;69.50;;;;;;5093693;28;20028;-74
2024/01/14 06:36:08;;;;;;;0.73;0.73;;;7.60;69.50;;;;;;5093845;28;20040;-73
2024/01/14 06:38:34;;;;;;;0.60;0.60;;;7.50;69.60;;;;;;5093464;28;20093;-71
2024/01/14 06:41:00;;;;;;;1.38;1.27;;;7.50;69.60;;;;;;5093921;28;20039;-71
2024/01/14 06:43:25;;;;;;;1.13;1.08;;;7.50;69.50;;;;;;5093669;28;20464;-70
2024/01/14 06:45:51;;;;;;;0.60;0.60;;;7.50;69.50;;;;;;5088276;28;20032;-71
2024/01/14 06:48:17;;;;;;;0.60;0.60;;;7.50;69.60;;;;;;5073313;28;20434;-71
2024/01/14 06:50:42;;;;;;;1.45;1.35;;;7.50;69.60;;;;;;5073249;28;20203;-70
2024/01/14 06:53:08;;;;;;;0.80;0.80;;;7.50;69.60;;;;;;5073245;28;20071;-70
2024/01/14 06:55:34;;;;;;;1.35;1.25;;;7.50;69.40;;;;;;5073416;28;20041;-71
2024/01/14 06:57:59;;;;;;;1.05;1.05;;;7.50;69.50;;;;;;5072997;28;20369;-71
2024/01/14 07:00:25;;;;;;;0.57;0.57;;;7.50;69.50;;;;;;5073043;28;20048;-71
2024/01/14 07:02:50;;;;;;;0.80;0.80;;;7.40;69.50;;;;;;5072873;28;20059;-71
2024/01/14 07:05:16;;;;;;;1.67;1.58;;;7.50;69.50;;;;;;5072814;28;20033;-70
2024/01/14 07:07:44;;;;;;;0.50;0.50;;;7.40;69.60;;;;;;5072739;28;20036;-71
2024/01/14 07:10:10;;;;;;;0.57;0.57;;;7.40;69.60;;;;;;5072534;28;20016;-71
2024/01/14 07:12:35;;;;;;;0.98;0.82;;;7.40;69.60;;;;;;5072834;28;20502;-70
2024/01/14 07:15:01;;;;;;;0.60;0.60;;;7.40;69.50;;;;;;5072712;28;20506;-71
2024/01/14 07:17:26;;;;;;;0.65;0.65;;;7.50;69.60;;;;;;5073133;28;20032;-70
2024/01/14 07:19:52;;;;;;;0.57;0.57;;;7.40;69.50;;;;;;5072505;28;20025;-72
2024/01/14 07:22:17;;;;;;;0.57;0.57;;;7.40;69.50;;;;;;5055030;28;20017;-70
2024/01/14 07:24:43;;;;;;;0.60;0.60;;;7.50;69.60;;;;;;5072453;28;20036;-71
2024/01/14 07:27:08;;;;;;;1.40;1.30;;;7.40;69.50;;;;;;5073076;28;20078;-71
2024/01/14 07:29:34;;;;;;;1.00;1.00;;;7.50;69.50;;;;;;5054783;28;20471;-71
2024/01/14 07:31:59;;;;;;;0.60;0.60;;;7.40;69.40;;;;;;5072637;28;20028;-72
2024/01/14 07:34:26;;;;;;;0.55;0.55;;;7.40;69.50;;;;;;5072347;28;20068;-72
2024/01/14 07:36:51;;;;;;;0.50;0.50;;;7.40;69.60;;;;;;5072018;28;20464;-72
2024/01/14 07:39:17;;;;;;;0.60;0.60;;;7.40;69.60;;;;;;5054171;28;20040;-72
2024/01/14 07:41:42;;;;;;;0.70;0.70;;;7.40;69.60;;;;;;5072514;28;20039;-73
2024/01/14 07:44:08;;;;;;;0.50;0.50;;;7.40;69.70;;;;;;5072344;28;20075;-71
2024/01/14 07:46:33;;;;;;;0.60;0.60;;;7.40;69.60;;;;;;5082953;28;20043;-71
2024/01/14 07:48:59;;;;;;;0.93;0.93;;;7.40;69.50;;;;;;5092152;28;20103;-74
2024/01/14 07:51:25;;;;;;;0.55;0.55;;;7.40;69.50;;;;;;5092446;28;20145;-74
2024/01/14 07:53:50;;;;;;;0.50;0.50;;;7.40;69.50;;;;;;5073811;28;20031;-74
2024/01/14 07:56:16;;;;;;;0.52;0.52;;;7.30;69.50;;;;;;5092358;28;20034;-74
2024/01/14 07:58:43;;;;;;;0.50;0.50;;;7.40;69.40;;;;;;5092175;28;20054;-74
2024/01/14 08:01:08;;;;;;;0.60;0.60;;;7.30;69.50;;;;;;5073795;28;20028;-74
2024/01/14 08:03:35;;;;;;;0.60;0.60;;;7.40;69.50;;;;;;5091927;28;20107;-74
2024/01/14 08:06:01;;;;;;;1.95;1.02;;;7.40;69.40;;;;;;5091887;28;20035;-75
2024/01/14 08:08:26;;;;;;;0.60;0.60;;;7.30;69.20;;;;;;5073718;28;20028;-75
2024/01/14 08:10:52;;;;;;;0.50;0.50;;;7.30;69.30;;;;;;5091815;28;20036;-74
2024/01/14 08:13:17;;;;;;;0.52;0.52;;;7.30;69.30;;;;;;5091942;28;20062;-74
2024/01/14 08:15:43;;;;;;;0.60;0.60;;;7.30;69.30;;;;;;5091949;28;20463;-74
2024/01/14 08:18:09;;;;;;;0.60;0.60;;;7.20;69.50;;;;;;5091717;28;20028;-74
2024/01/14 08:20:35;;;;;;;1.10;1.10;;;7.20;69.50;;;;;;5091717;28;20047;-74
2024/01/14 08:23:01;;;;;;;5.55;1.60;;;7.20;69.50;;;;;;5091523;28;20031;-74
2024/01/14 08:25:27;;;;;;;0.60;0.60;;;7.20;69.60;;;;;;5091642;28;20063;-74
2024/01/14 08:27:52;;;;;;;0.60;0.60;;;7.30;69.50;;;;;;5091510;28;20058;-74
2024/01/14 08:30:19;;;;;;;0.50;0.50;;;7.20;69.50;;;;;;5091917;28;20024;-74
2024/01/14 08:32:44;;;;;;;0.95;0.95;;;7.20;69.70;;;;;;5091549;28;20027;-74
2024/01/14 08:35:13;;;;;;;0.60;0.60;;;7.30;69.70;;;;;;5091367;28;20035;-74
2024/01/14 08:37:42;;;;;;;1.05;1.05;;;7.30;69.60;;;;;;5091485;28;20088;-74
2024/01/14 08:40:10;;;;;;;1.75;1.30;;;7.30;69.70;;;;;;5091224;28;20061;-74
2024/01/14 08:42:36;;;;;;;1.70;1.60;;;7.30;69.80;;;;;;5091501;28;20020;-74
2024/01/14 08:45:02;;;;;;;1.05;1.05;;;7.40;69.80;;;;;;5091468;28;20099;-74
2024/01/14 08:47:28;;;;;;;0.50;0.50;;;7.40;69.80;;;;;;5073228;28;20116;-74
2024/01/14 08:49:53;;;;;;;1.17;1.05;;;7.40;69.80;;;;;;5087696;28;20111;-74
2024/01/14 08:52:19;;;;;;;1.92;1.38;;;7.40;70.00;;;;;;5088376;28;20039;-74
2024/01/14 08:54:45;;;;;;;0.60;0.60;;;7.50;70.00;;;;;;5094737;28;20058;-75
2024/01/14 08:57:12;;;;;;;1.02;1.02;;;7.50;70.00;;;;;;5095940;28;20556;-74
2024/01/14 08:59:38;;;;;;;0.60;0.60;;;7.50;70.10;;;;;;5095579;28;20020;-74
2024/01/14 09:02:03;;;;;;;0.50;0.50;;;7.60;70.00;;;;;;5095751;28;20047;-74
2024/01/14 09:04:29;;;;;;;1.15;1.15;;;7.60;70.10;;;;;;5095549;28;20063;-74
2024/01/14 09:06:55;;;;;;;0.50;0.50;;;7.60;69.90;;;;;;5095676;28;20540;-74
2024/01/14 09:09:20;;;;;;;1.55;1.45;;;7.60;69.90;;;;;;5095632;28;20028;-74
2024/01/14 09:11:46;;;;;;;0.50;0.50;;;7.60;69.80;;;;;;5095580;28;20032;-74
2024/01/14 09:14:11;;;;;;;0.57;0.57;;;7.60;69.70;;;;;;5095341;28;20070;-74
2024/01/14 09:16:37;;;;;;;0.63;0.63;;;7.60;69.70;;;;;;5095421;28;20055;-74
2024/01/14 09:19:02;;;;;;;0.68;0.68;;;7.60;69.60;;;;;;5095242;28;20052;-74
2024/01/14 09:21:28;;;;;;;0.60;0.60;;;7.60;69.80;;;;;;5095359;28;20032;-75
2024/01/14 09:23:53;;;;;;;0.60;0.60;;;7.60;69.80;;;;;;5094970;28;20047;-74
2024/01/14 09:26:19;;;;;;;0.80;0.80;;;7.60;69.80;;;;;;5095244;28;20032;-74
2024/01/14 09:28:44;;;;;;;1.00;1.00;;;7.60;69.80;;;;;;5094970;28;20036;-75
2024/01/14 09:31:12;;;;;;;0.98;0.98;;;7.60;69.90;;;;;;5094761;28;20036;-75
2024/01/14 09:33:37;;;;;;;1.30;1.25;;;7.70;69.90;;;;;;5094820;28;20024;-74
2024/01/14 09:36:08;;;;;;;0.98;0.98;;;7.70;69.80;;;;;;5095036;28;20429;-74
2024/01/14 09:38:34;;;;;;;;;;;7.70;70.00;;;;;;5095345;28;20032;-74
2024/01/14 09:41:26;;;;;;;0.98;0.98;;;7.80;69.90;;;;;;5094808;28;20030;-74
2024/01/14 09:43:52;;;;;;;2.55;1.02;;;7.70;69.90;;;;;;5093293;28;20024;-74
2024/01/14 09:46:18;;;;;;;0.80;0.80;;;7.70;70.00;;;;;;5094792;28;20103;-74
2024/01/14 09:48:47;;;;;;;0.80;0.80;;;7.70;70.20;;;;;;5094615;28;20024;-75
2024/01/14 09:51:14;;;;;;;1.85;1.40;;;7.80;70.20;;;;;;5094681;28;20467;-74
2024/01/14 09:53:40;;;;;;;0.73;0.73;;;7.80;70.10;;;;;;5094830;28;20102;-74
2024/01/14 09:56:09;;;;;;;1.30;1.25;;;7.80;69.90;;;;;;5094565;28;20364;-74
2024/01/14 09:58:36;;;;;;;2.67;1.33;;;7.80;70.10;;;;;;5094352;28;20051;-74
2024/01/14 10:01:04;;;;;;;1.13;1.13;;;7.80;70.00;;;;;;5093871;28;20460;-74
2024/01/14 10:03:30;;;;;;;0.93;0.93;;;7.80;69.90;;;;;;5094426;28;20399;-75
2024/01/14 10:05:56;;;;;;;0.80;0.80;;;7.80;69.70;;;;;;5075899;28;20063;-74
2024/01/14 10:08:22;;;;;;;0.70;0.70;;;7.80;69.70;;;;;;5094297;28;20051;-75
2024/01/14 10:10:54;;;;;;;1.02;1.02;;;7.80;69.80;;;;;;5094355;28;20467;-74
2024/01/14 10:13:22;;;;;;;0.73;0.73;;;7.80;69.60;;;;;;5094112;28;20032;-74
2024/01/14 10:15:49;;;;;;;0.60;0.60;;;7.80;69.80;;;;;;5094063;28;20522;-75
2024/01/14 10:18:15;;;;;;;2.58;1.23;;;7.80;69.70;;;;;;5094122;28;20051;-75
2024/01/14 10:20:40;;;;;;;0.65;0.65;;;7.80;69.50;;;;;;5094591;28;20112;-73
2024/01/14 10:23:06;;;;;;;2.05;1.60;;;7.80;69.60;;;;;;5093867;28;20052;-74
2024/01/14 10:25:31;;;;;;;1.05;1.05;;;7.80;69.80;;;;;;5093860;28;20414;-74
2024/01/14 10:28:02;;;;;;;0.80;0.80;;;7.80;69.70;;;;;;5093719;28;20048;-73
2024/01/14 10:30:27;;;;;;;0.60;0.60;;;7.80;69.60;;;;;;5093678;28;20040;-74
2024/01/14 10:32:53;;;;;;;1.25;1.17;;;7.80;69.60;;;;;;5075612;28;20035;-74
2024/01/14 10:35:18;;;;;;;0.63;0.63;;;7.80;69.60;;;;;;5093803;28;20080;-74
2024/01/14 10:37:45;;;;;;;0.60;0.60;;;7.80;69.70;;;;;;5093737;28;20035;-74
2024/01/14 10:40:12;;;;;;;1.30;1.20;;;7.90;69.70;;;;;;5093320;28;20102;-74
2024/01/14 10:42:38;;;;;;;1.17;1.10;;;7.90;69.70;;;;;;5093512;28;20028;-74
2024/01/14 10:45:05;;;;;;;1.40;1.30;;;7.90;70.00;;;;;;5093447;28;20027;-74
2024/01/14 10:47:33;;;;;;;0.60;0.60;;;8.00;69.80;;;;;;5093408;28;20065;-74
2024/01/14 10:50:00;;;;;;;0.77;0.77;;;8.00;69.70;;;;;;5093176;28;20089;-74
2024/01/14 10:52:28;;;;;;;0.50;0.50;;;8.00;69.70;;;;;;5093874;28;20115;-74
2024/01/14 10:54:58;;;;;;;0.63;0.63;;;8.00;69.70;;;;;;5093281;28;20025;-73
2024/01/14 10:57:34;;;;;;;4.90;1.30;;;8.00;69.90;;;;;;5081271;28;20095;-73
2024/01/14 11:00:05;;;;;;;0.60;0.60;;;8.00;70.00;;;;;;5073230;28;20031;-74
2024/01/14 11:02:33;;;;;;;0.60;0.60;;;8.10;70.30;;;;;;5072974;28;20028;-74
2024/01/14 11:04:59;;;;;;;1.25;1.15;;;8.10;70.30;;;;;;5072661;28;20078;-74
2024/01/14 11:07:25;;;;;;;0.93;0.93;;;8.20;70.10;;;;;;5055191;28;20370;-74
2024/01/14 11:09:52;;;;;;;0.85;0.85;;;8.20;69.80;;;;;;5073033;28;20379;-74
2024/01/14 11:12:29;;;;;;;0.50;0.50;;;8.10;69.70;;;;;;5072321;28;20037;-74
2024/01/14 11:15:16;;;;;;;0.40;0.40;;;8.10;69.30;;;;;;5072872;28;20029;-74
2024/01/14 11:17:44;;;;;;;0.50;0.50;;;8.00;69.30;;;;;;5072827;28;20032;-74
2024/01/14 11:20:16;;;;;;;0.50;0.50;;;8.00;69.40;;;;;;5072428;28;20028;-74
2024/01/14 11:22:43;;;;;;;0.88;0.88;;;8.00;69.50;;;;;;5072640;28;20020;-75
2024/01/14 11:25:22;;;;;;;1.80;1.70;;;7.90;69.40;;;;;;5072184;28;20021;-74
2024/01/14 11:27:48;;;;;;;1.00;1.00;;;7.90;69.40;;;;;;5072690;28;20542;-74
2024/01/14 11:30:18;;;;;;;0.60;0.60;;;7.90;69.40;;;;;;5072306;28;20033;-74
2024/01/14 11:32:43;;;;;;;0.60;0.60;;;8.00;69.70;;;;;;5072276;28;20035;-74
2024/01/14 11:35:10;;;;;;;1.30;1.23;;;8.00;69.80;;;;;;5072037;28;20475;-75
2024/01/14 11:37:37;;;;;;;0.60;0.60;;;8.00;69.70;;;;;;5072025;28;20418;-74
2024/01/14 11:40:11;;;;;;;0.60;0.60;;;8.00;69.70;;;;;;5071970;28;20017;-75
2024/01/14 11:42:38;;;;;;;0.50;0.50;;;8.00;69.70;;;;;;5072111;28;20112;-74
2024/01/14 11:45:12;;;;;;;1.30;1.15;;;8.00;70.00;;;;;;5054351;28;20063;-75
2024/01/14 11:47:43;;;;;;;0.50;0.50;;;8.10;70.00;;;;;;5071989;28;20091;-74
2024/01/14 11:50:10;;;;;;;0.88;0.88;;;8.10;69.90;;;;;;5071922;28;20450;-75
2024/01/14 11:52:40;;;;;;;1.05;1.05;;;8.10;70.00;;;;;;5071980;28;20032;-74
2024/01/14 11:55:06;;;;;;;0.60;0.60;;;8.10;69.80;;;;;;5071810;28;20020;-74
2024/01/14 11:57:32;;;;;;;0.50;0.50;;;8.10;69.70;;;;;;5071848;28;20544;-74
2024/01/14 12:00:00;;;;;;;0.50;0.50;;;8.10;69.60;;;;;;5072036;28;20045;-75
2024/01/14 12:02:25;;;;;;;1.30;1.17;;;8.10;69.30;;;;;;5072275;28;20094;-75
2024/01/14 12:04:51;;;;;;;0.50;0.50;;;8.00;69.30;;;;;;5071744;28;20123;-74
2024/01/14 12:07:23;;;;;;;0.80;0.80;;;8.00;69.30;;;;;;5053794;28;20082;-74
2024/01/14 12:09:55;;;;;;;0.50;0.50;;;8.00;69.50;;;;;;5071723;28;20063;-74
2024/01/14 12:12:26;;;;;;;0.70;0.70;;;8.00;69.60;;;;;;5071766;28;20048;-74
2024/01/14 12:14:52;;;;;;;0.50;0.50;;;8.00;69.70;;;;;;5084387;28;20364;-75
2024/01/14 12:17:17;;;;;;;1.13;1.10;;;8.00;69.80;;;;;;5092231;28;20027;-74
2024/01/14 12:19:43;;;;;;;1.17;1.13;;;8.00;69.60;;;;;;5091760;28;20028;-74
2024/01/14 12:22:09;;;;;;;0.50;0.50;;;8.00;69.40;;;;;;5088798;28;20039;-75
2024/01/14 12:24:35;;;;;;;0.95;0.95;;;8.00;69.40;;;;;;5091779;28;20030;-75
2024/01/14 12:27:00;;;;;;;0.50;0.50;;;8.00;69.70;;;;;;5068244;28;20454;-74
2024/01/14 12:29:30;;;;;;;0.57;0.57;;;8.00;69.50;;;;;;5085683;28;20021;-75
2024/01/14 12:31:56;;;;;;;1.65;1.38;;;8.00;69.60;;;;;;5064145;28;20036;-75
2024/01/14 12:34:22;;;;;;;0.65;0.65;;;8.00;69.90;;;;;;5080507;28;20117;-74
2024/01/14 12:36:48;;;;;;;0.88;0.88;;;8.10;70.10;;;;;;5081353;28;20472;-75
2024/01/14 12:39:15;;;;;;;1.38;1.27;;;8.20;69.90;;;;;;5080948;28;20110;-74
2024/01/14 12:41:43;;;;;;;0.73;0.73;;;8.20;69.80;;;;;;5079633;28;20034;-76
2024/01/14 12:44:08;;;;;;;0.63;0.63;;;8.20;69.60;;;;;;5075273;28;20089;-74
2024/01/14 12:46:34;;;;;;;1.15;1.15;;;8.20;69.60;;;;;;5079061;28;20489;-75
2024/01/14 12:49:05;;;;;;;0.70;0.70;;;8.10;69.30;;;;;;5082470;28;20024;-75
2024/01/14 12:51:31;;;;;;;0.60;0.60;;;8.10;69.50;;;;;;5081408;28;20111;-75
2024/01/14 12:53:57;;;;;;;1.02;1.02;;;8.10;69.50;;;;;;5080934;28;20119;-75